Time;durP1;ratioP1;P1;durP2;ratioP2;P2;SDS_P1;SDS_P2;PMS_P1;PMS_P2;Temp;Humidity;BMP_temperature;BMP_pressure;BME280_temperature;BME280_humidity;BME280_pressure;Samples;Min_cycle;Max_cycle;Signal;HPM_P1;HPM_P2
2023/05/04 00:02:12;;;;;;;14.95;10.38;;;;;;;10.94;100.00;99817.56;5061708;28;20099;-80
2023/05/04 00:04:56;;;;;;;18.85;9.07;;;;;;;11.10;100.00;99821.06;5055349;28;20048;-80
2023/05/04 00:07:40;;;;;;;15.95;9.02;;;;;;;11.22;100.00;99814.38;5056714;28;20121;-80
2023/05/04 00:10:26;;;;;;;18.48;9.25;;;;;;;11.14;100.00;99810.00;5055441;28;20537;-79
2023/05/04 00:13:10;;;;;;;19.95;10.40;;;;;;;11.35;100.00;99815.56;5055196;28;20084;-80
2023/05/04 00:15:55;;;;;;;19.67;9.38;;;;;;;11.42;100.00;99809.41;5060934;28;20055;-80
2023/05/04 00:18:39;;;;;;;21.17;10.88;;;;;;;10.94;100.00;99814.94;5056858;28;20564;-80
2023/05/04 00:21:22;;;;;;;13.90;9.45;;;;;;;11.25;100.00;99819.28;5054958;28;20048;-79
2023/05/04 00:24:06;;;;;;;21.17;9.77;;;;;;;11.29;100.00;99810.03;5061400;28;20398;-80
2023/05/04 00:26:50;;;;;;;19.60;9.82;;;;;;;11.31;100.00;99811.66;5055446;28;21236;-79
2023/05/04 00:29:34;;;;;;;16.40;9.75;;;;;;;11.51;100.00;99807.50;5055627;28;20040;-79
2023/05/04 00:32:19;;;;;;;17.38;10.38;;;;;;;11.74;99.90;99806.56;5057804;28;20133;-79
2023/05/04 00:35:03;;;;;;;20.40;10.13;;;;;;;11.85;100.00;99813.19;5055381;28;20090;-79
2023/05/04 00:37:47;;;;;;;15.00;9.73;;;;;;;11.42;100.00;99808.59;5058899;28;20047;-80
2023/05/04 00:40:33;;;;;;;14.95;10.45;;;;;;;11.46;100.00;99799.34;5058496;28;20174;-79
2023/05/04 00:43:18;;;;;;;16.23;9.98;;;;;;;11.75;99.48;99802.13;5058122;28;20088;-79
2023/05/04 00:46:02;;;;;;;14.60;9.07;;;;;;;11.72;99.27;99792.78;5065832;28;20178;-79
2023/05/04 00:48:48;;;;;;;17.85;10.35;;;;;;;11.70;99.36;99792.16;5058862;28;20619;-79
2023/05/04 00:51:33;;;;;;;18.80;10.05;;;;;;;11.50;100.00;99795.34;5058853;28;20402;-79
2023/05/04 00:54:18;;;;;;;14.30;10.07;;;;;;;11.60;99.84;99787.19;5060336;28;20039;-79
2023/05/04 00:57:03;;;;;;;15.32;9.50;;;;;;;11.66;99.68;99786.44;5061450;28;20109;-79
2023/05/04 00:59:47;;;;;;;20.23;10.55;;;;;;;11.49;100.00;99780.56;5064477;28;20044;-79
2023/05/04 01:02:31;;;;;;;16.33;10.45;;;;;;;11.43;100.00;99791.81;5060456;28;20036;-79
2023/05/04 01:05:15;;;;;;;19.75;11.10;;;;;;;11.24;100.00;99786.09;5055398;28;20048;-79
2023/05/04 01:08:14;;;;;;;15.43;9.40;;;;;;;11.74;100.00;99788.16;5057985;28;20090;-79
2023/05/04 01:11:19;;;;;;;15.52;10.10;;;;;;;11.55;100.00;99777.19;5056290;28;20461;-79
2023/05/04 01:14:06;;;;;;;15.07;9.43;;;;;;;11.67;100.00;99780.19;5058796;28;20052;-79
2023/05/04 01:16:56;;;;;;;23.17;9.35;;;;;;;11.79;100.00;99767.41;5059177;28;20039;-79
2023/05/04 01:19:40;;;;;;;17.42;9.52;;;;;;;11.90;99.99;99763.47;5063743;28;20048;-80
2023/05/04 01:22:25;;;;;;;19.05;10.20;;;;;;;11.77;100.00;99763.31;5065166;28;20086;-79
2023/05/04 01:25:09;;;;;;;18.52;10.63;;;;;;;11.68;100.00;99757.34;5065560;28;20083;-79
2023/05/04 01:27:53;;;;;;;21.60;10.60;;;;;;;11.26;100.00;99757.81;5062050;28;20040;-79
2023/05/04 01:30:42;;;;;;;19.65;10.32;;;;;;;11.57;100.00;99754.16;5062066;28;20520;-79
2023/05/04 01:33:28;;;;;;;16.50;10.02;;;;;;;11.58;100.00;99750.53;5058648;28;20094;-79
2023/05/04 01:36:12;;;;;;;24.70;10.40;;;;;;;11.46;100.00;99756.44;5064456;28;20047;-79
2023/05/04 01:38:58;;;;;;;19.38;9.65;;;;;;;11.49;100.00;99743.75;5061333;28;20466;-79
2023/05/04 01:41:42;;;;;;;17.55;9.95;;;;;;;11.51;100.00;99747.03;5057869;28;20087;-79
2023/05/04 01:44:26;;;;;;;18.40;10.00;;;;;;;11.60;100.00;99742.47;5061332;28;20621;-78
2023/05/04 01:47:10;;;;;;;19.65;10.23;;;;;;;11.71;100.00;99728.88;5057724;28;20181;-79
2023/05/04 01:49:54;;;;;;;17.65;9.27;;;;;;;11.68;100.00;99729.22;5058559;28;20446;-79
2023/05/04 01:52:38;;;;;;;12.70;9.32;;;;;;;11.46;100.00;99738.88;5056662;28;20090;-78
2023/05/04 01:55:22;;;;;;;17.90;10.05;;;;;;;10.96;100.00;99728.91;5065266;28;20447;-79
2023/05/04 01:58:07;;;;;;;17.10;9.90;;;;;;;11.60;100.00;99744.31;5056950;28;20043;-80
2023/05/04 02:00:51;;;;;;;20.17;9.70;;;;;;;11.58;100.00;99734.75;5063364;28;20114;-79
2023/05/04 02:03:35;;;;;;;17.85;10.13;;;;;;;11.45;100.00;99736.41;5061683;28;20044;-80
2023/05/04 02:06:19;;;;;;;21.83;10.88;;;;;;;11.46;100.00;99728.38;5055851;28;20118;-79
2023/05/04 02:09:03;;;;;;;17.38;9.98;;;;;;;11.56;100.00;99730.72;5060881;28;20082;-79
2023/05/04 02:11:47;;;;;;;17.42;9.88;;;;;;;11.61;100.00;99727.53;5056587;28;20048;-79
2023/05/04 02:14:31;;;;;;;24.02;10.15;;;;;;;11.20;100.00;99721.78;5061827;28;20039;-80
2023/05/04 02:17:14;;;;;;;14.05;9.00;;;;;;;11.71;100.00;99714.91;5058059;28;20166;-79
2023/05/04 02:19:58;;;;;;;23.15;10.23;;;;;;;11.41;100.00;99726.28;5056634;28;20542;-80
2023/05/04 02:22:42;;;;;;;21.85;10.73;;;;;;;11.64;100.00;99719.28;5063093;28;20048;-79
2023/05/04 02:25:26;;;;;;;19.63;10.30;;;;;;;11.64;100.00;99711.38;5057894;28;20081;-79
2023/05/04 02:28:10;;;;;;;27.88;10.23;;;;;;;11.56;100.00;99721.00;5057850;28;20086;-80
2023/05/04 02:30:54;;;;;;;18.33;9.73;;;;;;;11.64;100.00;99712.19;5056251;28;20134;-80
2023/05/04 02:33:39;;;;;;;17.52;10.05;;;;;;;11.68;100.00;99710.00;5059189;28;20044;-78
2023/05/04 02:36:22;;;;;;;17.25;10.32;;;;;;;11.63;100.00;99709.75;5065832;28;20086;-79
2023/05/04 02:39:06;;;;;;;15.15;9.90;;;;;;;11.65;100.00;99707.75;5062830;28;20543;-79
2023/05/04 02:41:50;;;;;;;20.42;9.88;;;;;;;11.62;100.00;99700.25;5059003;28;20129;-80
2023/05/04 02:44:34;;;;;;;17.80;10.18;;;;;;;11.44;100.00;99701.44;5062108;28;20044;-79
2023/05/04 02:47:18;;;;;;;27.95;10.57;;;;;;;11.39;100.00;99693.28;5060409;28;20089;-79
2023/05/04 02:50:03;;;;;;;23.08;10.07;;;;;;;11.33;100.00;99688.75;5067611;28;20089;-79
2023/05/04 02:52:47;;;;;;;15.75;8.93;;;;;;;11.44;100.00;99696.19;5058323;28;20078;-79
2023/05/04 02:55:31;;;;;;;19.80;10.48;;;;;;;11.44;100.00;99690.94;5061853;28;20103;-79
2023/05/04 02:58:15;;;;;;;17.58;11.18;;;;;;;11.05;100.00;99689.44;5059036;28;20116;-79
2023/05/04 03:00:59;;;;;;;25.15;11.82;;;;;;;10.93;100.00;99683.81;5058312;28;20056;-78
2023/05/04 03:03:43;;;;;;;19.60;11.07;;;;;;;11.33;100.00;99684.34;5062107;28;20089;-79
2023/05/04 03:06:27;;;;;;;22.33;10.90;;;;;;;10.96;100.00;99683.44;5057013;28;20094;-79
2023/05/04 03:09:11;;;;;;;19.95;10.13;;;;;;;11.17;100.00;99680.06;5058759;28;20051;-79
2023/05/04 03:11:55;;;;;;;19.95;10.75;;;;;;;11.39;100.00;99677.50;5056130;28;20544;-79
2023/05/04 03:14:39;;;;;;;25.75;9.68;;;;;;;11.43;100.00;99673.53;5061418;28;20047;-79
2023/05/04 03:17:23;;;;;;;20.08;9.32;;;;;;;11.52;100.00;99674.25;5055508;28;20044;-79
2023/05/04 03:20:11;;;;;;;21.50;9.85;;;;;;;11.60;100.00;99663.59;5056230;28;20493;-79
2023/05/04 03:22:55;;;;;;;20.67;9.45;;;;;;;11.56;100.00;99657.09;5058186;28;20122;-80
2023/05/04 03:25:39;;;;;;;18.58;10.40;;;;;;;11.05;100.00;99645.56;5055950;28;20587;-80
2023/05/04 03:28:24;;;;;;;16.42;9.38;;;;;;;11.46;100.00;99652.13;5062446;28;20039;-80
2023/05/04 03:31:08;;;;;;;26.23;10.15;;;;;;;11.65;100.00;99652.53;5052095;28;21622;-79
2023/05/04 03:33:52;;;;;;;20.80;9.00;;;;;;;11.40;100.00;99652.88;5064940;28;20463;-79
2023/05/04 03:36:36;;;;;;;17.27;9.05;;;;;;;11.23;100.00;99642.56;5054186;28;20442;-79
2023/05/04 03:39:20;;;;;;;17.23;9.82;;;;;;;11.47;100.00;99650.28;5050463;28;20048;-80
2023/05/04 03:42:04;;;;;;;20.13;10.00;;;;;;;11.35;100.00;99644.72;5062136;28;20074;-78
2023/05/04 03:44:48;;;;;;;14.73;8.13;;;;;;;11.52;100.00;99651.38;5055983;28;20589;-79
2023/05/04 03:47:32;;;;;;;15.82;8.98;;;;;;;11.64;100.00;99656.16;5058273;28;20068;-78
2023/05/04 03:50:16;;;;;;;19.05;10.18;;;;;;;11.61;100.00;99648.66;5060048;28;20040;-79
2023/05/04 03:53:00;;;;;;;24.80;9.05;;;;;;;11.45;100.00;99637.34;5061804;28;20098;-79
2023/05/04 03:55:44;;;;;;;23.13;9.43;;;;;;;11.50;100.00;99631.56;5055756;28;20047;-79
2023/05/04 03:58:29;;;;;;;20.98;10.18;;;;;;;11.50;100.00;99640.22;5051665;28;20060;-79
2023/05/04 04:01:13;;;;;;;23.95;10.00;;;;;;;11.21;100.00;99627.97;5057124;28;20090;-79
2023/05/04 04:03:57;;;;;;;16.95;9.63;;;;;;;11.63;100.00;99625.63;5053928;28;20467;-79
2023/05/04 04:06:41;;;;;;;26.50;10.32;;;;;;;11.34;100.00;99633.41;5054636;28;20040;-79
2023/05/04 04:09:25;;;;;;;24.50;10.07;;;;;;;11.20;100.00;99626.34;5060601;28;20403;-79
2023/05/04 04:12:09;;;;;;;25.42;9.57;;;;;;;11.53;100.00;99631.19;5056774;28;20584;-79
2023/05/04 04:14:52;;;;;;;19.10;9.65;;;;;;;11.18;100.00;99621.25;5062264;28;20123;-79
2023/05/04 04:17:37;;;;;;;19.00;9.73;;;;;;;11.51;100.00;99633.97;5061090;28;20067;-79
2023/05/04 04:20:23;;;;;;;26.45;10.55;;;;;;;11.43;100.00;99620.97;5063256;28;20044;-79
2023/05/04 04:23:07;;;;;;;19.73;9.68;;;;;;;11.20;100.00;99615.84;5061171;28;20505;-79
2023/05/04 04:25:52;;;;;;;25.65;10.07;;;;;;;11.47;100.00;99616.13;5062217;28;20056;-79
2023/05/04 04:28:36;;;;;;;15.95;10.05;;;;;;;10.87;100.00;99601.28;5058132;28;20131;-79
2023/05/04 04:31:21;;;;;;;25.08;10.55;;;;;;;11.28;100.00;99613.09;5063913;28;20071;-78
2023/05/04 04:34:04;;;;;;;22.27;11.13;;;;;;;11.04;100.00;99601.09;5056494;28;20091;-79
2023/05/04 04:36:50;;;;;;;19.17;9.80;;;;;;;11.39;100.00;99604.72;5059894;28;20095;-79
2023/05/04 04:39:34;;;;;;;23.30;10.38;;;;;;;10.80;100.00;99598.59;5062748;28;20123;-78
2023/05/04 04:42:17;;;;;;;19.45;10.15;;;;;;;11.15;100.00;99600.63;5063649;28;20043;-77
2023/05/04 04:45:04;;;;;;;19.98;10.60;;;;;;;11.24;100.00;99603.94;5059987;28;20040;-79
2023/05/04 04:47:48;;;;;;;32.40;11.73;;;;;;;11.00;100.00;99595.41;5064487;28;20453;-78
2023/05/04 04:50:32;;;;;;;29.30;11.75;;;;;;;10.98;100.00;99586.88;5057587;28;20051;-79
2023/05/04 04:53:16;;;;;;;23.83;10.55;;;;;;;11.31;100.00;99596.97;5060066;28;20162;-80
2023/05/04 04:56:00;;;;;;;19.13;10.40;;;;;;;10.80;100.00;99589.88;5056109;28;20047;-79
2023/05/04 04:58:44;;;;;;;33.65;11.23;;;;;;;10.81;100.00;99588.91;5064454;28;20048;-78
2023/05/04 05:01:29;;;;;;;27.52;11.00;;;;;;;11.08;100.00;99597.91;5062294;28;20044;-78
2023/05/04 05:04:13;;;;;;;31.25;12.95;;;;;;;10.84;100.00;99591.97;5056772;28;20107;-78
2023/05/04 05:06:57;;;;;;;24.63;10.93;;;;;;;11.13;100.00;99589.47;5059433;28;20040;-78
2023/05/04 05:09:42;;;;;;;23.20;10.52;;;;;;;11.24;100.00;99583.75;5059544;28;20414;-79
2023/05/04 05:12:26;;;;;;;27.10;11.23;;;;;;;11.08;100.00;99582.13;5062508;28;20098;-79
2023/05/04 05:15:10;;;;;;;20.95;10.75;;;;;;;11.37;100.00;99584.88;5060782;28;20402;-79
2023/05/04 05:17:55;;;;;;;29.27;11.32;;;;;;;11.13;100.00;99579.78;5063037;28;20040;-79
2023/05/04 05:20:39;;;;;;;24.17;10.77;;;;;;;11.09;100.00;99569.84;5061485;28;20063;-79
2023/05/04 05:23:24;;;;;;;20.55;10.30;;;;;;;11.22;100.00;99567.38;5059738;28;20540;-79
2023/05/04 05:26:08;;;;;;;29.90;11.95;;;;;;;11.19;100.00;99582.69;5057921;28;20105;-79
2023/05/04 05:28:52;;;;;;;21.33;11.10;;;;;;;11.05;100.00;99577.25;5062049;28;20056;-79
2023/05/04 05:31:37;;;;;;;27.02;10.32;;;;;;;11.26;100.00;99575.66;5064196;28;20075;-78
2023/05/04 05:34:20;;;;;;;26.00;11.02;;;;;;;11.37;100.00;99577.00;5059732;28;20043;-80
2023/05/04 05:37:04;;;;;;;27.73;12.40;;;;;;;11.63;100.00;99571.19;5062078;28;20065;-80
2023/05/04 05:39:48;;;;;;;35.80;11.55;;;;;;;11.24;100.00;99575.88;5063972;28;20453;-79
2023/05/04 05:42:32;;;;;;;23.65;11.25;;;;;;;11.06;100.00;99570.22;5058295;28;20403;-80
2023/05/04 05:45:18;;;;;;;30.15;12.73;;;;;;;11.29;100.00;99572.66;5061476;28;20093;-79
2023/05/04 05:48:02;;;;;;;33.72;12.43;;;;;;;11.18;100.00;99566.09;5064624;28;20047;-78
2023/05/04 05:50:46;;;;;;;28.00;11.43;;;;;;;11.52;100.00;99566.44;5064813;28;20039;-80
2023/05/04 05:53:30;;;;;;;27.10;10.63;;;;;;;11.64;100.00;99570.19;5054909;28;20055;-79
2023/05/04 05:56:14;;;;;;;30.92;11.35;;;;;;;11.75;100.00;99566.25;5066372;28;20110;-79
2023/05/04 05:58:58;;;;;;;28.83;12.57;;;;;;;11.77;100.00;99569.50;5057836;28;20124;-78
2023/05/04 06:01:42;;;;;;;26.55;13.95;;;;;;;12.03;100.00;99570.75;5050727;28;20092;-78
2023/05/04 06:04:26;;;;;;;24.10;12.70;;;;;;;11.65;100.00;99560.50;5055209;28;20044;-76
2023/05/04 06:07:12;;;;;;;29.17;13.85;;;;;;;11.63;100.00;99552.78;5062556;28;20043;-77
2023/05/04 06:09:56;;;;;;;42.28;17.17;;;;;;;11.81;100.00;99552.34;5061083;28;20043;-76
2023/05/04 06:12:40;;;;;;;30.98;13.80;;;;;;;12.04;100.00;99550.50;5058166;28;20091;-76
2023/05/04 06:15:24;;;;;;;25.77;13.38;;;;;;;12.10;100.00;99558.44;5062739;28;20528;-77
2023/05/04 06:18:08;;;;;;;30.25;13.50;;;;;;;11.88;100.00;99549.75;5058687;28;20047;-76
2023/05/04 06:20:59;;;;;;;34.47;14.27;;;;;;;11.74;100.00;99548.84;5063180;28;20528;-78
2023/05/04 06:23:43;;;;;;;37.25;14.55;;;;;;;11.97;100.00;99547.78;5062301;28;20035;-81
2023/05/04 06:26:27;;;;;;;25.65;12.00;;;;;;;11.83;100.00;99537.19;5060781;28;20051;-80
2023/05/04 06:29:11;;;;;;;37.42;13.80;;;;;;;12.21;100.00;99537.88;5060539;28;20097;-80
2023/05/04 06:31:55;;;;;;;33.17;14.63;;;;;;;11.92;100.00;99535.25;5061933;28;20087;-80
2023/05/04 06:34:40;;;;;;;35.47;14.88;;;;;;;12.05;100.00;99550.34;5064449;28;20099;-80
2023/05/04 06:37:27;;;;;;;27.35;13.13;;;;;;;12.00;100.00;99542.19;5056053;28;20040;-80
2023/05/04 06:40:11;;;;;;;32.00;14.70;;;;;;;12.14;100.00;99535.22;5064879;28;20543;-76
2023/05/04 06:42:56;;;;;;;29.92;13.23;;;;;;;12.13;100.00;99534.38;5065548;28;20043;-77
2023/05/04 06:45:40;;;;;;;31.20;13.70;;;;;;;12.61;100.00;99534.66;5058287;28;20485;-77
2023/05/04 06:48:24;;;;;;;26.15;13.75;;;;;;;12.02;100.00;99523.59;5060971;28;20158;-77
2023/05/04 06:51:10;;;;;;;29.77;14.40;;;;;;;12.39;100.00;99530.31;5058252;28;20047;-76
2023/05/04 06:53:55;;;;;;;27.83;13.73;;;;;;;12.69;100.00;99518.69;5060226;28;20163;-79
2023/05/04 06:56:39;;;;;;;33.25;13.90;;;;;;;12.39;100.00;99518.94;5061422;28;20052;-80
2023/05/04 06:59:23;;;;;;;28.25;13.25;;;;;;;12.84;100.00;99515.91;5059668;28;20090;-78
2023/05/04 07:02:07;;;;;;;30.95;13.45;;;;;;;13.11;100.00;99500.16;5060447;28;20044;-78
2023/05/04 07:04:51;;;;;;;37.20;14.20;;;;;;;12.83;100.00;99501.91;5060034;28;20039;-78
2023/05/04 07:07:36;;;;;;;36.65;13.90;;;;;;;13.04;100.00;99492.25;5058819;28;20048;-77
2023/05/04 07:10:20;;;;;;;30.70;14.60;;;;;;;13.07;100.00;99488.41;5057961;28;20053;-77
2023/05/04 07:13:05;;;;;;;29.88;13.98;;;;;;;13.35;100.00;99477.69;5056235;28;20060;-78
2023/05/04 07:15:49;;;;;;;29.17;14.10;;;;;;;13.61;100.00;99478.75;5055896;28;20070;-77
2023/05/04 07:18:33;;;;;;;23.08;13.40;;;;;;;13.34;100.00;99469.97;5053788;28;20036;-78
2023/05/04 07:21:17;;;;;;;31.75;13.45;;;;;;;13.42;100.00;99475.06;5055651;28;20090;-79
2023/05/04 07:24:03;;;;;;;26.73;14.75;;;;;;;13.49;100.00;99470.63;5050918;28;20040;-79
2023/05/04 07:26:47;;;;;;;29.67;13.95;;;;;;;14.01;100.00;99467.34;5060705;28;20101;-79
2023/05/04 07:29:31;;;;;;;27.60;14.23;;;;;;;13.78;100.00;99468.59;5054219;28;20075;-83
2023/05/04 07:32:16;;;;;;;29.50;13.60;;;;;;;13.75;100.00;99457.63;5057566;28;20043;-82
2023/05/04 07:35:00;;;;;;;31.10;13.10;;;;;;;13.13;100.00;99456.78;5053645;28;20036;-86
2023/05/04 07:37:45;;;;;;;28.85;13.02;;;;;;;13.83;100.00;99466.16;5057954;28;20089;-82
2023/05/04 07:40:29;;;;;;;29.52;14.43;;;;;;;13.52;100.00;99461.50;5057863;28;20452;-82
2023/05/04 07:43:13;;;;;;;33.47;15.45;;;;;;;13.42;100.00;99467.97;5060498;28;20502;-82
2023/05/04 07:45:57;;;;;;;26.33;12.82;;;;;;;13.88;100.00;99457.63;5054847;28;20098;-82
2023/05/04 07:48:41;;;;;;;27.45;13.25;;;;;;;13.66;100.00;99455.22;5060823;28;20040;-81
2023/05/04 07:51:25;;;;;;;25.08;13.55;;;;;;;14.27;100.00;99447.16;5064580;28;20044;-81
2023/05/04 07:54:09;;;;;;;29.27;13.48;;;;;;;13.70;100.00;99450.31;5052334;28;20035;-82
2023/05/04 07:56:54;;;;;;;31.60;13.80;;;;;;;14.19;100.00;99442.13;5056241;28;20067;-81
2023/05/04 07:59:38;;;;;;;36.75;15.43;;;;;;;13.70;100.00;99434.50;5059421;28;20056;-82
2023/05/04 08:02:24;;;;;;;27.38;13.85;;;;;;;14.26;100.00;99432.34;5058021;28;20048;-82
2023/05/04 08:05:09;;;;;;;27.35;14.55;;;;;;;14.28;100.00;99419.72;5059470;28;20071;-81
2023/05/04 08:07:53;;;;;;;26.65;13.73;;;;;;;14.46;100.00;99415.59;5066088;28;20067;-81
2023/05/04 08:10:37;;;;;;;29.27;13.68;;;;;;;14.88;100.00;99401.97;5052485;28;20403;-81
2023/05/04 08:13:21;;;;;;;28.95;15.10;;;;;;;14.88;100.00;99400.13;5062086;28;20093;-81
2023/05/04 08:16:08;;;;;;;27.45;13.50;;;;;;;15.26;100.00;99403.75;5053616;28;20124;-78
2023/05/04 08:18:52;;;;;;;26.60;12.48;;;;;;;15.82;100.00;99406.44;5060320;28;20090;-78
2023/05/04 08:21:36;;;;;;;23.92;13.73;;;;;;;15.74;100.00;99401.47;5056327;28;20090;-78
2023/05/04 08:24:20;;;;;;;23.60;12.52;;;;;;;15.96;99.72;99391.28;5060806;28;20039;-78
2023/05/04 08:27:04;;;;;;;30.60;13.65;;;;;;;15.69;99.40;99388.88;5059344;28;20052;-78
2023/05/04 08:29:48;;;;;;;30.83;14.50;;;;;;;14.97;100.00;99384.81;5056858;28;20461;-78
2023/05/04 08:32:32;;;;;;;27.00;14.52;;;;;;;15.45;100.00;99386.06;5068739;28;20044;-78
2023/05/04 08:35:16;;;;;;;25.05;14.05;;;;;;;15.48;98.78;99374.25;5063736;28;20043;-78
2023/05/04 08:38:00;;;;;;;32.20;13.95;;;;;;;15.82;98.22;99377.34;5060518;28;20098;-78
2023/05/04 08:40:45;;;;;;;23.92;13.38;;;;;;;15.52;98.23;99376.22;5071345;28;20142;-78
2023/05/04 08:43:29;;;;;;;30.10;14.50;;;;;;;15.09;99.19;99385.75;5055354;28;20099;-77
2023/05/04 08:46:15;;;;;;;27.17;14.15;;;;;;;15.71;97.64;99381.53;5067074;28;20044;-77
2023/05/04 08:48:59;;;;;;;21.95;14.02;;;;;;;15.91;96.86;99368.13;5053860;28;20039;-77
2023/05/04 08:51:45;;;;;;;33.15;14.85;;;;;;;15.75;97.57;99379.25;5051609;28;20437;-77
2023/05/04 08:54:29;;;;;;;25.13;14.65;;;;;;;15.82;96.60;99377.34;5047812;28;20049;-79
2023/05/04 08:57:15;;;;;;;25.92;14.52;;;;;;;15.68;97.10;99379.31;5049455;28;20099;-79
2023/05/04 09:00:00;;;;;;;28.65;14.90;;;;;;;15.66;96.81;99370.78;5053116;28;20704;-79
2023/05/04 09:02:45;;;;;;;35.42;16.08;;;;;;;15.73;96.72;99370.72;5058287;28;20048;-78
2023/05/04 09:05:30;;;;;;;30.50;15.38;;;;;;;15.57;97.23;99357.88;5056431;28;20040;-79
2023/05/04 09:08:15;;;;;;;29.85;14.90;;;;;;;16.23;96.70;99354.69;5056395;28;20043;-79
2023/05/04 09:10:59;;;;;;;22.13;14.25;;;;;;;16.38;94.14;99346.34;5058358;28;20121;-79
2023/05/04 09:13:43;;;;;;;28.20;15.38;;;;;;;16.84;94.10;99352.00;5058191;28;20067;-79
2023/05/04 09:16:35;;;;;;;29.35;14.85;;;;;;;16.64;93.43;99346.19;5054157;28;20040;-79
2023/05/04 09:19:20;;;;;;;30.50;16.00;;;;;;;16.28;93.15;99351.34;5059673;28;20561;-79
2023/05/04 09:22:13;;;;;;;27.05;16.00;;;;;;;16.65;93.30;99351.25;5054666;28;20032;-79
2023/05/04 09:25:24;;;;;;;25.27;15.43;;;;;;;16.84;91.60;99353.81;5052428;28;20116;-79
2023/05/04 09:28:09;;;;;;;34.47;15.05;;;;;;;17.14;90.74;99339.72;5057863;28;20095;-79
2023/05/04 09:30:59;;;;;;;37.65;16.33;;;;;;;16.89;90.37;99350.50;5055993;28;20102;-79
2023/05/04 09:33:43;;;;;;;23.75;15.02;;;;;;;17.37;89.36;99351.34;5052772;28;20051;-79
2023/05/04 09:36:27;;;;;;;23.25;15.50;;;;;;;16.85;89.25;99340.34;5061556;28;20048;-79
2023/05/04 09:39:12;;;;;;;26.30;15.48;;;;;;;17.44;88.79;99338.78;5053469;28;20498;-79
2023/05/04 09:41:56;;;;;;;27.63;14.85;;;;;;;17.19;88.99;99339.00;5052815;28;20060;-79
2023/05/04 09:44:41;;;;;;;29.92;14.77;;;;;;;17.78;86.50;99328.34;5060256;28;20099;-80
2023/05/04 09:47:36;;;;;;;28.33;15.20;;;;;;;17.95;86.25;99322.28;5062875;28;20040;-78
2023/05/04 09:50:22;;;;;;;26.13;15.57;;;;;;;18.00;85.95;99327.69;5055160;28;20051;-82
2023/05/04 09:53:07;;;;;;;24.60;15.10;;;;;;;18.32;84.83;99308.66;5058099;28;20130;-81
2023/05/04 09:55:59;;;;;;;28.13;14.80;;;;;;;17.88;84.30;99313.63;5062652;28;20182;-82
2023/05/04 09:58:45;;;;;;;26.00;15.23;;;;;;;17.42;85.14;99314.31;5064463;28;20043;-82
2023/05/04 10:01:29;;;;;;;26.50;15.73;;;;;;;18.59;83.84;99302.72;5063132;28;20557;-82
2023/05/04 10:04:13;;;;;;;27.73;15.35;;;;;;;18.71;82.20;99299.97;5057936;28;20039;-82
2023/05/04 10:06:58;;;;;;;26.02;15.80;;;;;;;18.66;80.40;99303.34;5060654;28;20138;-81
2023/05/04 10:09:43;;;;;;;26.73;15.30;;;;;;;17.83;81.94;99299.22;5055392;28;20546;-81
2023/05/04 10:12:27;;;;;;;20.85;14.15;;;;;;;18.06;81.56;99294.09;5059376;28;20509;-81
2023/05/04 10:15:14;;;;;;;30.73;14.50;;;;;;;18.06;82.91;99297.53;5057648;28;20047;-81
2023/05/04 10:18:36;;;;;;;26.52;15.15;;;;;;;17.80;82.41;99294.38;5060283;28;20112;-82
2023/05/04 10:21:58;;;;;;;24.83;15.18;;;;;;;17.75;81.71;99288.97;5048775;28;20038;-81
2023/05/04 10:25:04;;;;;;;27.70;15.23;;;;;;;18.05;82.22;99287.19;5054849;28;20043;-76
2023/05/04 10:28:03;;;;;;;28.20;15.00;;;;;;;17.80;83.37;99286.41;5048952;28;20052;-77
2023/05/04 10:30:53;;;;;;;23.42;13.38;;;;;;;18.14;82.28;99283.06;5060623;28;20047;-78
2023/05/04 10:33:41;;;;;;;22.65;14.50;;;;;;;18.57;82.17;99286.19;5050974;28;20095;-79
2023/05/04 10:36:43;;;;;;;29.15;15.63;;;;;;;17.65;81.82;99288.75;5052504;28;20071;-79
2023/05/04 10:39:32;;;;;;;22.98;14.18;;;;;;;17.73;82.57;99291.06;5052880;28;20044;-79
2023/05/04 10:42:16;;;;;;;23.42;14.60;;;;;;;19.15;79.61;99279.88;5061923;28;20078;-80
2023/05/04 10:45:00;;;;;;;28.35;14.57;;;;;;;18.65;79.07;99292.97;5062366;28;20043;-80
2023/05/04 10:47:44;;;;;;;24.63;14.38;;;;;;;19.35;78.61;99269.50;5060165;28;20437;-80
2023/05/04 10:50:28;;;;;;;;;;;;;;;18.69;78.47;99278.13;5059921;28;20047;-80
2023/05/04 10:53:14;;;;;;;26.85;14.18;;;;;;;19.45;77.81;99270.69;5057929;28;20967;-80
2023/05/04 10:55:58;;;;;;;31.45;13.73;;;;;;;19.22;78.34;99262.69;5052159;28;20035;-80
2023/05/04 10:58:42;;;;;;;32.60;14.15;;;;;;;18.55;79.82;99261.72;5060716;28;20055;-80
2023/05/04 11:01:26;;;;;;;25.05;13.70;;;;;;;20.08;77.53;99263.16;5055785;28;20075;-79
2023/05/04 11:04:23;;;;;;;28.45;14.05;;;;;;;19.01;77.82;99255.50;5056742;28;20112;-79
2023/05/04 11:07:07;;;;;;;28.17;13.57;;;;;;;18.61;77.73;99257.28;5061278;28;20058;-80
2023/05/04 11:09:52;;;;;;;27.77;13.85;;;;;;;19.01;78.13;99250.16;5060263;28;20044;-79
2023/05/04 11:12:37;;;;;;;22.92;13.35;;;;;;;18.79;77.30;99241.09;5056474;28;20070;-80
2023/05/04 11:15:20;;;;;;;25.98;13.80;;;;;;;18.79;75.91;99238.41;5059661;28;20051;-80
2023/05/04 11:18:04;;;;;;;33.08;13.75;;;;;;;19.05;76.08;99230.00;5060613;28;20052;-81
2023/05/04 11:20:48;;;;;;;26.77;13.73;;;;;;;19.37;75.57;99221.38;5053671;28;20094;-80
2023/05/04 11:23:32;;;;;;;28.77;13.88;;;;;;;18.60;75.98;99213.94;5058667;28;20086;-80
2023/05/04 11:26:17;;;;;;;22.75;14.40;;;;;;;19.13;75.14;99217.06;5056604;28;20048;-80
2023/05/04 11:29:11;;;;;;;25.42;14.30;;;;;;;19.26;75.40;99191.97;5057296;28;20039;-80
2023/05/04 11:31:55;;;;;;;28.00;14.02;;;;;;;19.34;75.00;99195.25;5055602;28;20044;-79
2023/05/04 11:34:45;;;;;;;27.15;12.90;;;;;;;20.00;73.52;99185.56;5058788;28;20102;-80
2023/05/04 11:37:29;;;;;;;23.90;13.50;;;;;;;19.66;74.65;99181.22;5064348;28;20055;-80
2023/05/04 11:40:16;;;;;;;22.58;13.68;;;;;;;19.25;75.02;99177.03;5056746;28;20044;-80
2023/05/04 11:43:02;;;;;;;28.00;13.40;;;;;;;18.92;74.90;99162.78;5054009;28;20040;-80
2023/05/04 11:45:47;;;;;;;32.30;13.63;;;;;;;19.24;75.06;99166.66;5058777;28;20046;-80
2023/05/04 11:48:33;;;;;;;24.70;13.18;;;;;;;18.88;75.14;99171.50;5060313;28;20036;-80
2023/05/04 11:51:21;;;;;;;24.88;12.13;;;;;;;19.37;76.25;99162.81;5060242;28;20039;-80
2023/05/04 11:54:06;;;;;;;22.17;12.52;;;;;;;20.27;72.62;99148.19;5059674;28;20079;-80
2023/05/04 11:56:49;;;;;;;23.50;12.93;;;;;;;18.95;73.25;99133.03;5058881;28;20048;-80
2023/05/04 11:59:34;;;;;;;22.85;12.27;;;;;;;18.88;74.68;99124.47;5062581;28;20536;-87
2023/05/04 12:02:19;;;;;;;22.75;12.02;;;;;;;18.42;75.47;99133.41;5060376;28;20040;-87
2023/05/04 12:05:14;;;;;;;22.95;12.38;;;;;;;19.02;74.43;99126.75;5057592;28;20056;-86
2023/05/04 12:07:59;;;;;;;26.80;13.93;;;;;;;19.03;74.93;99115.06;5060488;28;20076;-89
2023/05/04 12:10:43;;;;;;;27.63;12.27;;;;;;;19.20;73.68;99115.00;5059957;28;20569;-87
2023/05/04 12:13:27;;;;;;;31.40;13.48;;;;;;;19.15;73.43;99118.41;5060569;28;20610;-87
2023/05/04 12:16:11;;;;;;;;;;;;;;;19.87;72.95;99128.94;5062350;28;20040;-88
2023/05/04 12:19:09;;;;;;;23.17;12.27;;;;;;;19.73;73.49;99123.22;5064385;28;20003;-87
2023/05/04 12:21:57;;;;;;;20.95;12.63;;;;;;;19.40;74.41;99122.38;5062303;28;20040;-88
2023/05/04 12:24:41;;;;;;;24.95;12.50;;;;;;;20.00;72.50;99122.41;5060224;28;20031;-89
2023/05/04 12:27:26;;;;;;;21.80;12.00;;;;;;;19.82;72.18;99132.34;5061726;28;20514;-87
2023/05/04 12:30:11;;;;;;;26.40;13.38;;;;;;;19.93;71.95;99121.81;5062859;28;20048;-87
2023/05/04 12:32:55;;;;;;;21.85;13.40;;;;;;;19.69;72.08;99122.13;5057941;28;20086;-85
2023/05/04 12:35:39;;;;;;;;;;;;;;;19.71;71.76;99114.69;5061425;28;20051;-86
2023/05/04 12:38:24;;;;;;;21.75;12.32;;;;;;;19.58;71.48;99109.78;5064678;28;19993;-88